24h
KLIENDITUGI:
Saartelennuliinid: +372 58856336 (24/7)
Estairi piletikassa lennujaamas:
+372 6058887; +372 55603687

17.04.2018 hommikune Transaviabaltika lend KTB670 kell 07:00 (kohalik aeg) Tallinn - Kärdla väljalend ja KTB671 kell 07:45 Kärdla – Tallinn väljalend hilineb 3,5 tundi. KTB670 TLL-KDL uus väljalennu aeg on kell 10:30 (kohalik aeg) ja KTB671 KDL – TLL uus väljalennu aeg on kell 11:15 (kohalik aeg). Lennu hilinemise põhjustab udu Tallinna lennujaamas. Samuti asjaolu, et lennuki kaptenil pole võimalik määratleda varulennuvälja kuna kõikidel ümbruskaudsetel lennuväljadel on udu.

EETN Tallinna lennuväli

FTEO31 EETN 162300 TAF EETN 162305Z 1700/1724 30010KT 3000 BR OVC002

TEMPO 1700/1705 0300 FG VV001 BECMG 1705/1707 9999 BKN005 BECMG 1710/1712 BKN015 PROB40

TEMPO 1715/1724 BKN005=

METAR EETN 170350Z 28005KT 0300 R26/0650N FG VV002 05/05 Q1013 NOSIG=
Kuupäev: 
17/04/2018